Time;durP1;ratioP1;P1;durP2;ratioP2;P2;SDS_P1;SDS_P2;PMS_P1;PMS_P2;Temp;Humidity;BMP_temperature;BMP_pressure;BME280_temperature;BME280_humidity;BME280_pressure;Samples;Min_cycle;Max_cycle;Signal;HPM_P1;HPM_P2
2022/08/25 00:01:31;;;;;;;18.23;9.30;;;;;;;;;;8527518;27;20413;-88
2022/08/25 00:05:34;;;;;;;15.82;9.23;;;;;;;;;;8525434;27;20035;-90
2022/08/25 00:09:36;;;;;;;12.85;8.57;;;;;;;;;;8528181;27;20133;-87
2022/08/25 00:13:40;;;;;;;16.42;9.02;;;;;;;;;;8528147;27;20474;-87
2022/08/25 00:17:44;;;;;;;12.80;8.55;;;;;;;;;;8528407;27;20452;-88
2022/08/25 00:21:47;;;;;;;13.45;8.52;;;;;;;;;;8531089;27;20035;-88
2022/08/25 00:25:49;;;;;;;19.15;9.77;;;;;;;;;;8526103;27;20043;-88
2022/08/25 00:29:52;;;;;;;10.93;8.65;;;;;;;;;;8525668;27;20038;-88
2022/08/25 00:33:57;;;;;;;12.57;7.70;;;;;;;;;;8528315;27;20076;-89
2022/08/25 00:38:00;;;;;;;14.70;9.07;;;;;;;;;;8527009;27;20035;-88
2022/08/25 00:42:03;;;;;;;15.60;9.40;;;;;;;;;;8517294;27;20046;-89
2022/08/25 00:46:05;;;;;;;18.33;7.57;;;;;;;;;;8530300;27;20474;-91
2022/08/25 00:50:11;;;;;;;18.35;8.73;;;;;;;;;;8517382;27;20039;-92
2022/08/25 00:54:19;;;;;;;14.65;8.63;;;;;;;;;;8516276;27;20619;-89
2022/08/25 00:58:25;;;;;;;13.70;8.10;;;;;;;;;;8521136;27;20833;-90
2022/08/25 01:02:30;;;;;;;16.15;9.40;;;;;;;;;;8529082;27;20046;-88
2022/08/25 01:06:41;;;;;;;16.58;8.18;;;;;;;;;;8528142;27;20053;-89
2022/08/25 01:10:45;;;;;;;12.15;7.60;;;;;;;;;;8528201;27;20053;-91
2022/08/25 01:14:49;;;;;;;15.27;7.78;;;;;;;;;;8524867;27;20042;-93
2022/08/25 01:18:55;;;;;;;15.70;8.35;;;;;;;;;;8528705;27;20034;-89
2022/08/25 01:23:00;;;;;;;14.27;7.60;;;;;;;;;;8529541;27;20062;-89
2022/08/25 01:27:02;;;;;;;18.25;8.10;;;;;;;;;;8506563;27;20408;-92
2022/08/25 01:31:05;;;;;;;15.13;7.70;;;;;;;;;;8530511;27;20042;-91
2022/08/25 01:35:08;;;;;;;13.18;7.85;;;;;;;;;;8518141;27;20184;-90
2022/08/25 01:39:13;;;;;;;12.18;7.63;;;;;;;;;;8534028;27;20046;-91
2022/08/25 01:43:26;;;;;;;12.68;8.63;;;;;;;;;;8530042;27;20042;-88
2022/08/25 01:47:30;;;;;;;13.63;7.68;;;;;;;;;;8536760;27;20070;-90
2022/08/25 01:51:38;;;;;;;14.90;8.05;;;;;;;;;;8536605;27;20050;-89
2022/08/25 01:55:51;;;;;;;12.40;8.32;;;;;;;;;;8536300;27;20054;-90
2022/08/25 01:59:54;;;;;;;13.75;8.45;;;;;;;;;;8531398;27;20046;-90
2022/08/25 02:03:58;;;;;;;17.15;7.57;;;;;;;;;;8536898;27;20046;-92
2022/08/25 02:08:00;;;;;;;16.77;9.07;;;;;;;;;;8529309;27;20043;-91
2022/08/25 02:12:05;;;;;;;16.98;8.75;;;;;;;;;;8536146;27;20046;-92
2022/08/25 02:16:10;;;;;;;16.30;9.52;;;;;;;;;;8522444;27;20042;-90
2022/08/25 02:20:13;;;;;;;14.98;9.73;;;;;;;;;;8535881;27;20063;-91
2022/08/25 02:24:16;;;;;;;19.05;11.60;;;;;;;;;;8529053;27;20140;-91
2022/08/25 02:28:20;;;;;;;32.55;17.10;;;;;;;;;;8517538;27;20433;-91
2022/08/25 02:32:23;;;;;;;31.05;15.40;;;;;;;;;;8534239;27;20393;-90
2022/08/25 02:36:25;;;;;;;27.23;13.80;;;;;;;;;;8535147;27;20039;-91
2022/08/25 02:40:31;;;;;;;27.25;16.58;;;;;;;;;;8525157;27;20050;-92
2022/08/25 02:44:35;;;;;;;22.35;12.50;;;;;;;;;;8519180;27;20046;-92
2022/08/25 02:48:39;;;;;;;25.10;14.70;;;;;;;;;;8534852;27;20039;-91
2022/08/25 02:52:41;;;;;;;16.58;9.15;;;;;;;;;;8528718;27;20422;-92
2022/08/25 02:56:44;;;;;;;16.75;9.20;;;;;;;;;;8527844;27;20502;-91
2022/08/25 03:00:48;;;;;;;17.15;9.10;;;;;;;;;;8532045;27;20167;-92
2022/08/25 03:04:52;;;;;;;19.30;10.38;;;;;;;;;;8527528;27;20046;-92
2022/08/25 03:08:54;;;;;;;34.40;13.80;;;;;;;;;;8532831;27;20088;-92
2022/08/25 03:12:57;;;;;;;46.40;19.10;;;;;;;;;;8515705;27;20043;-91
2022/08/25 03:17:01;;;;;;;24.30;11.45;;;;;;;;;;8533521;27;20046;-91
2022/08/25 03:21:03;;;;;;;15.73;9.77;;;;;;;;;;8528005;27;20039;-91
2022/08/25 03:29:28;;;;;;;17.33;13.43;;;;;;;;;;8527990;27;20394;-92
2022/08/25 03:33:32;;;;;;;19.13;12.73;;;;;;;;;;8529293;27;20047;-89
2022/08/25 03:37:35;;;;;;;16.83;9.90;;;;;;;;;;8533595;27;20047;-92
2022/08/25 03:41:38;;;;;;;13.65;9.38;;;;;;;;;;8526310;27;20043;-90
2022/08/25 03:45:41;;;;;;;16.27;8.93;;;;;;;;;;8526599;27;20050;-92
2022/08/25 03:49:46;;;;;;;15.18;9.15;;;;;;;;;;8532860;27;20091;-91
2022/08/25 03:53:49;;;;;;;12.48;9.63;;;;;;;;;;8532715;27;20042;-91
2022/08/25 03:57:53;;;;;;;21.48;8.85;;;;;;;;;;8519937;27;20444;-90
2022/08/25 04:01:55;;;;;;;13.88;8.95;;;;;;;;;;8529428;27;20039;-92
2022/08/25 04:06:03;;;;;;;17.92;8.60;;;;;;;;;;8532792;27;20047;-92
2022/08/25 04:10:07;;;;;;;17.67;8.85;;;;;;;;;;8514068;27;20050;-89
2022/08/25 04:14:10;;;;;;;11.63;8.95;;;;;;;;;;8519168;27;20046;-92
2022/08/25 04:18:12;;;;;;;14.65;8.60;;;;;;;;;;8525529;27;20038;-91
2022/08/25 04:22:17;;;;;;;14.40;8.05;;;;;;;;;;8525362;27;20085;-92
2022/08/25 04:26:26;;;;;;;12.07;8.25;;;;;;;;;;8525446;27;20053;-91
2022/08/25 04:30:29;;;;;;;17.50;9.07;;;;;;;;;;8525109;27;20097;-92
2022/08/25 04:34:31;;;;;;;11.85;9.00;;;;;;;;;;8525188;27;20054;-91
2022/08/25 04:38:36;;;;;;;14.50;9.38;;;;;;;;;;8526818;27;20047;-91
2022/08/25 04:42:38;;;;;;;14.88;9.32;;;;;;;;;;8516372;27;20475;-92
2022/08/25 04:46:41;;;;;;;17.83;9.73;;;;;;;;;;8524384;27;20042;-92
2022/08/25 04:50:44;;;;;;;17.10;10.15;;;;;;;;;;8531518;27;20087;-92
2022/08/25 04:54:48;;;;;;;23.88;9.70;;;;;;;;;;8524210;27;20058;-93
2022/08/25 04:58:51;;;;;;;12.93;10.18;;;;;;;;;;8524085;27;20042;-93
2022/08/25 05:02:54;;;;;;;18.02;10.98;;;;;;;;;;8517271;27;20428;-93
2022/08/25 05:06:57;;;;;;;15.15;9.73;;;;;;;;;;8523699;27;20039;-93
2022/08/25 05:11:05;;;;;;;12.85;9.88;;;;;;;;;;8524095;27;20050;-92
2022/08/25 05:19:26;;;;;;;20.85;11.18;;;;;;;;;;8525803;27;20066;-92
2022/08/25 05:23:28;;;;;;;17.48;12.18;;;;;;;;;;8532511;27;20502;-93
2022/08/25 05:27:34;;;;;;;22.65;14.05;;;;;;;;;;8537670;27;20050;-93
2022/08/25 05:31:36;;;;;;;32.33;16.50;;;;;;;;;;8526745;27;20493;-90
2022/08/25 05:35:40;;;;;;;25.90;15.95;;;;;;;;;;8530420;27;20210;-89
2022/08/25 05:39:42;;;;;;;32.13;16.13;;;;;;;;;;8517819;27;20485;-87
2022/08/25 05:43:49;;;;;;;24.17;16.08;;;;;;;;;;8524324;27;20043;-88
2022/08/25 05:47:51;;;;;;;33.58;12.02;;;;;;;;;;8527136;27;20042;-89
2022/08/25 05:51:56;;;;;;;19.17;8.45;;;;;;;;;;8524841;27;20054;-88
2022/08/25 05:56:00;;;;;;;24.17;8.60;;;;;;;;;;8526610;27;20055;-88
2022/08/25 06:00:07;;;;;;;18.55;6.63;;;;;;;;;;8527186;27;20496;-88
2022/08/25 06:04:09;;;;;;;23.08;7.55;;;;;;;;;;8522234;27;20062;-90
2022/08/25 06:08:13;;;;;;;20.42;6.00;;;;;;;;;;8527434;27;20038;-88
2022/08/25 06:12:17;;;;;;;18.15;5.25;;;;;;;;;;8529501;27;20046;-88
2022/08/25 06:16:22;;;;;;;20.58;6.00;;;;;;;;;;8524889;27;20577;-88
2022/08/25 06:20:27;;;;;;;19.42;6.07;;;;;;;;;;8529912;27;20478;-87
2022/08/25 06:24:30;;;;;;;18.00;5.63;;;;;;;;;;8528811;27;20043;-89
2022/08/25 06:28:32;;;;;;;18.48;5.45;;;;;;;;;;8521845;27;20047;-89
2022/08/25 06:32:40;;;;;;;17.48;6.00;;;;;;;;;;8523452;27;20042;-90
2022/08/25 06:36:42;;;;;;;16.58;6.18;;;;;;;;;;8521319;27;20046;-90
2022/08/25 06:40:47;;;;;;;16.02;5.80;;;;;;;;;;8526068;27;20528;-89
2022/08/25 06:44:50;;;;;;;18.27;5.75;;;;;;;;;;8522676;27;20043;-90
2022/08/25 06:48:55;;;;;;;20.60;5.93;;;;;;;;;;8527116;27;20129;-92
2022/08/25 06:52:58;;;;;;;16.45;6.45;;;;;;;;;;8526207;27;20076;-89
2022/08/25 06:57:00;;;;;;;27.08;6.32;;;;;;;;;;8527926;27;20493;-90
2022/08/25 07:01:11;;;;;;;17.58;5.93;;;;;;;;;;8522808;27;20512;-93
2022/08/25 07:05:15;;;;;;;20.83;5.95;;;;;;;;;;8509693;27;20098;-89
2022/08/25 07:09:18;;;;;;;20.55;5.75;;;;;;;;;;8523073;27;20477;-90
2022/08/25 07:13:20;;;;;;;18.08;5.90;;;;;;;;;;8528206;27;20046;-90
2022/08/25 07:17:23;;;;;;;18.10;5.63;;;;;;;;;;8525929;27;20793;-90
2022/08/25 07:21:29;;;;;;;17.83;6.40;;;;;;;;;;8528069;27;20039;-91
2022/08/25 07:25:32;;;;;;;20.75;6.53;;;;;;;;;;8530604;27;20046;-90
2022/08/25 07:29:37;;;;;;;21.40;6.10;;;;;;;;;;8533070;27;20038;-91
2022/08/25 07:35:14;;;;;;;19.48;6.07;;;;;;;;;;8532713;27;20051;-89
2022/08/25 07:38:06;;;;;;;24.67;6.32;;;;;;;;;;8531565;27;20049;-91
2022/08/25 07:42:08;;;;;;;21.73;6.85;;;;;;;;;;8532533;27;20454;-91
2022/08/25 07:46:11;;;;;;;21.80;6.00;;;;;;;;;;8532466;27;20042;-90
2022/08/25 07:50:14;;;;;;;21.73;6.78;;;;;;;;;;8532291;27;20062;-91
2022/08/25 07:54:18;;;;;;;20.20;6.30;;;;;;;;;;8525377;27;20482;-93
2022/08/25 07:58:21;;;;;;;23.40;6.85;;;;;;;;;;8531953;27;20069;-92
2022/08/25 08:02:26;;;;;;;20.95;5.70;;;;;;;;;;8531796;27;20049;-90
2022/08/25 08:06:29;;;;;;;22.02;6.50;;;;;;;;;;8531765;27;20046;-90
2022/08/25 08:10:33;;;;;;;28.67;6.47;;;;;;;;;;8531381;27;20047;-90
2022/08/25 08:14:36;;;;;;;24.80;6.00;;;;;;;;;;8531553;27;20068;-91
2022/08/25 08:18:39;;;;;;;113.18;59.90;;;;;;;;;;8531177;27;20226;-91
2022/08/25 08:22:45;;;;;;;30.73;11.05;;;;;;;;;;8530931;27;20117;-90
2022/08/25 08:26:49;;;;;;;28.15;7.57;;;;;;;;;;8531583;27;20708;-90
2022/08/25 08:30:51;;;;;;;21.17;6.32;;;;;;;;;;8525371;27;20477;-92
2022/08/25 08:34:54;;;;;;;29.60;6.57;;;;;;;;;;8523791;27;20129;-90
2022/08/25 08:38:56;;;;;;;24.55;6.22;;;;;;;;;;8530716;27;20404;-90
2022/08/25 08:43:12;;;;;;;19.60;5.68;;;;;;;;;;8523393;27;20043;-90
2022/08/25 08:47:24;;;;;;;30.83;9.35;;;;;;;;;;8528793;27;20047;-89
2022/08/25 08:51:31;;;;;;;27.75;6.40;;;;;;;;;;8527767;27;20068;-90
2022/08/25 08:55:38;;;;;;;17.90;5.57;;;;;;;;;;8527373;27;20058;-90
2022/08/25 08:59:50;;;;;;;17.85;5.20;;;;;;;;;;8525713;27;20450;-90
2022/08/25 09:03:58;;;;;;;21.83;6.00;;;;;;;;;;8527337;27;20398;-91
2022/08/25 09:08:06;;;;;;;25.90;6.00;;;;;;;;;;8527493;27;20038;-91
2022/08/25 09:12:13;;;;;;;20.33;5.07;;;;;;;;;;8528669;27;20042;-90
2022/08/25 09:20:53;;;;;;;23.23;5.18;;;;;;;;;;8523983;27;20458;-91
2022/08/25 09:25:03;;;;;;;17.25;4.88;;;;;;;;;;8438132;22;20056;-91
2022/08/25 09:29:10;;;;;;;17.77;5.05;;;;;;;;;;8392658;28;20056;-91
2022/08/25 09:33:18;;;;;;;20.92;4.57;;;;;;;;;;8387198;28;20067;-90
2022/08/25 09:37:23;;;;;;;14.32;4.40;;;;;;;;;;8395440;28;20053;-90
2022/08/25 09:41:45;;;;;;;236.35;44.80;;;;;;;;;;8394930;28;20045;-92
2022/08/25 09:45:50;;;;;;;17.25;4.93;;;;;;;;;;8394667;28;20095;-92
2022/08/25 09:49:59;;;;;;;17.58;4.57;;;;;;;;;;8394457;28;20480;-92
2022/08/25 09:54:04;;;;;;;21.60;4.45;;;;;;;;;;8388839;28;20052;-91
2022/08/25 09:58:18;;;;;;;20.83;4.95;;;;;;;;;;8392509;28;20445;-92
2022/08/25 10:02:25;;;;;;;18.35;4.65;;;;;;;;;;8393683;28;20117;-91
2022/08/25 10:06:35;;;;;;;24.55;8.55;;;;;;;;;;8384632;28;20051;-92
2022/08/25 10:10:43;;;;;;;26.08;8.73;;;;;;;;;;8393890;28;20044;-90
2022/08/25 10:14:46;;;;;;;14.98;4.55;;;;;;;;;;8390847;28;20186;-92
2022/08/25 10:19:02;;;;;;;15.38;4.63;;;;;;;;;;8401518;28;20045;-93
2022/08/25 10:23:13;;;;;;;17.00;3.78;;;;;;;;;;8398578;28;20057;-92
2022/08/25 10:27:23;;;;;;;11.27;3.90;;;;;;;;;;8398152;28;20126;-92
2022/08/25 10:31:54;;;;;;;14.95;3.88;;;;;;;;;;8387654;28;20055;-90
2022/08/25 10:36:05;;;;;;;14.23;3.78;;;;;;;;;;8397656;28;20608;-92
2022/08/25 10:40:19;;;;;;;17.67;4.32;;;;;;;;;;8398112;28;20120;-91
2022/08/25 10:49:02;;;;;;;12.18;4.05;;;;;;;;;;8398631;28;20037;-92
2022/08/25 10:53:24;;;;;;;14.38;4.10;;;;;;;;;;8398892;28;20071;-92
2022/08/25 10:57:35;;;;;;;14.85;4.22;;;;;;;;;;8398565;28;20048;-92
2022/08/25 11:01:54;;;;;;;12.07;3.85;;;;;;;;;;8398374;28;20083;-91
2022/08/25 11:06:01;;;;;;;14.82;3.85;;;;;;;;;;8391699;28;20075;-91
2022/08/25 11:10:10;;;;;;;13.65;3.92;;;;;;;;;;8383472;28;20479;-91
2022/08/25 11:14:19;;;;;;;14.13;4.22;;;;;;;;;;8394184;28;20044;-92
2022/08/25 11:18:23;;;;;;;10.73;4.32;;;;;;;;;;8381559;22;20061;-91
2022/08/25 11:22:33;;;;;;;14.68;3.88;;;;;;;;;;8344973;28;20048;-92
2022/08/25 11:26:41;;;;;;;9.00;3.90;;;;;;;;;;8373471;28;20071;-93
2022/08/25 11:30:46;;;;;;;10.05;3.70;;;;;;;;;;8366944;28;20048;-93
2022/08/25 11:34:48;;;;;;;10.98;4.22;;;;;;;;;;8367644;28;20045;-94
2022/08/25 11:39:04;;;;;;;10.10;4.10;;;;;;;;;;8355878;28;20045;-91
2022/08/25 11:43:22;;;;;;;13.20;4.50;;;;;;;;;;8358137;28;20482;-91
2022/08/25 11:47:47;;;;;;;13.23;3.97;;;;;;;;;;8368535;28;20498;-91
2022/08/25 11:51:51;;;;;;;16.33;4.22;;;;;;;;;;8370380;28;20037;-91
2022/08/25 11:55:57;;;;;;;16.38;4.53;;;;;;;;;;8367183;28;20040;-90
2022/08/25 12:00:05;;;;;;;9.02;3.80;;;;;;;;;;8364945;28;20439;-92
2022/08/25 12:04:38;;;;;;;9.57;4.07;;;;;;;;;;8379834;28;20051;-91
2022/08/25 12:09:29;;;;;;;9.77;3.78;;;;;;;;;;8368659;28;20045;-91
2022/08/25 12:13:46;;;;;;;10.93;3.97;;;;;;;;;;8294613;28;20061;-91
2022/08/25 12:18:09;;;;;;;9.93;3.50;;;;;;;;;;8359078;28;20060;-90
2022/08/25 12:22:50;;;;;;;10.88;3.92;;;;;;;;;;8345471;28;20053;-91
2022/08/25 12:26:57;;;;;;;16.58;4.47;;;;;;;;;;8350737;28;20056;-91
2022/08/25 12:31:17;;;;;;;11.93;3.58;;;;;;;;;;8349621;28;20029;-90
2022/08/25 12:35:28;;;;;;;8.15;3.85;;;;;;;;;;8340314;28;20473;-92
2022/08/25 12:39:35;;;;;;;15.00;3.97;;;;;;;;;;8349386;28;20045;-91
2022/08/25 12:43:39;;;;;;;9.95;4.55;;;;;;;;;;8354901;28;20037;-90
2022/08/25 12:47:46;;;;;;;12.32;6.50;;;;;;;;;;8341526;28;20114;-91
2022/08/25 12:51:55;;;;;;;13.60;4.22;;;;;;;;;;8358791;28;20051;-94
2022/08/25 12:56:03;;;;;;;14.30;5.45;;;;;;;;;;8356993;28;20476;-92
2022/08/25 13:00:17;;;;;;;12.18;3.50;;;;;;;;;;8350181;28;20045;-91
2022/08/25 13:04:56;;;;;;;11.93;3.78;;;;;;;;;;8358013;28;20072;-89
2022/08/25 13:09:37;;;;;;;11.57;5.25;;;;;;;;;;8356978;28;20041;-88
2022/08/25 13:13:49;;;;;;;13.85;3.78;;;;;;;;;;8372771;28;20052;-90
2022/08/25 13:17:51;;;;;;;8.25;3.70;;;;;;;;;;8350412;28;20520;-90
2022/08/25 13:21:55;;;;;;;11.15;4.00;;;;;;;;;;8354917;28;20049;-89
2022/08/25 13:25:58;;;;;;;10.13;3.40;;;;;;;;;;8364749;28;20045;-90
2022/08/25 13:30:02;;;;;;;8.45;3.92;;;;;;;;;;8370105;28;20052;-88
2022/08/25 13:34:06;;;;;;;7.43;3.65;;;;;;;;;;8369671;28;20052;-89
2022/08/25 13:38:15;;;;;;;14.23;4.25;;;;;;;;;;8375842;28;20052;-89
2022/08/25 13:42:18;;;;;;;8.23;3.25;;;;;;;;;;8378689;28;20047;-90
2022/08/25 13:46:23;;;;;;;8.63;3.83;;;;;;;;;;8376860;28;20052;-88
2022/08/25 13:50:37;;;;;;;9.20;3.92;;;;;;;;;;8375018;28;20489;-89
2022/08/25 13:54:42;;;;;;;10.73;4.50;;;;;;;;;;8381250;28;20127;-89
2022/08/25 13:58:44;;;;;;;8.95;3.92;;;;;;;;;;8377574;28;20064;-89
2022/08/25 14:02:50;;;;;;;14.73;3.83;;;;;;;;;;8373607;28;20056;-89
2022/08/25 14:07:14;;;;;;;12.20;3.90;;;;;;;;;;8370566;28;20408;-89
2022/08/25 14:11:32;;;;;;;12.63;5.13;;;;;;;;;;8368597;28;20118;-89
2022/08/25 14:15:34;;;;;;;10.70;3.80;;;;;;;;;;8378613;28;20102;-89
2022/08/25 14:19:46;;;;;;;12.95;4.00;;;;;;;;;;8371179;28;20064;-89
2022/08/25 14:23:48;;;;;;;8.05;3.45;;;;;;;;;;8377209;28;20064;-88
2022/08/25 14:27:56;;;;;;;7.93;3.60;;;;;;;;;;8371085;28;20508;-89
2022/08/25 14:32:00;;;;;;;8.23;3.00;;;;;;;;;;8369126;28;20048;-88
2022/08/25 14:36:05;;;;;;;10.00;3.50;;;;;;;;;;8373004;28;20163;-89
2022/08/25 14:40:09;;;;;;;8.02;3.20;;;;;;;;;;8374592;28;20446;-88
2022/08/25 14:44:13;;;;;;;8.68;3.13;;;;;;;;;;8371762;28;20052;-89
2022/08/25 14:48:24;;;;;;;8.20;3.00;;;;;;;;;;8371380;28;20045;-88
2022/08/25 14:52:29;;;;;;;9.13;3.05;;;;;;;;;;8366955;28;20049;-88
2022/08/25 14:56:32;;;;;;;11.07;3.38;;;;;;;;;;8378666;28;20041;-88
2022/08/25 15:00:36;;;;;;;7.28;2.92;;;;;;;;;;8380014;28;20118;-89
2022/08/25 15:04:39;;;;;;;12.65;3.00;;;;;;;;;;8372854;28;20048;-88
2022/08/25 15:13:04;;;;;;;7.15;3.05;;;;;;;;;;8367505;28;20044;-88
2022/08/25 15:17:08;;;;;;;9.38;3.33;;;;;;;;;;8373442;28;20580;-88
2022/08/25 15:21:11;;;;;;;15.13;3.40;;;;;;;;;;8379531;28;20090;-88
2022/08/25 15:25:15;;;;;;;8.15;3.22;;;;;;;;;;8373544;28;20045;-89
2022/08/25 15:29:18;;;;;;;7.82;3.17;;;;;;;;;;8373730;28;20550;-89
2022/08/25 15:33:21;;;;;;;7.10;2.90;;;;;;;;;;8368469;28;20492;-87
2022/08/25 15:37:23;;;;;;;10.35;3.15;;;;;;;;;;8368481;28;20125;-88
2022/08/25 15:41:28;;;;;;;11.00;3.42;;;;;;;;;;8370568;28;20051;-89
2022/08/25 15:45:30;;;;;;;5.88;2.97;;;;;;;;;;8365854;28;20083;-90
2022/08/25 15:49:34;;;;;;;9.57;3.03;;;;;;;;;;8364462;28;20056;-88
2022/08/25 15:53:36;;;;;;;9.65;2.90;;;;;;;;;;8378985;28;20049;-88
2022/08/25 15:57:40;;;;;;;6.53;2.70;;;;;;;;;;8371259;28;20048;-88
2022/08/25 16:01:43;;;;;;;9.60;2.95;;;;;;;;;;8370273;28;20520;-88
2022/08/25 16:05:46;;;;;;;4.60;2.80;;;;;;;;;;8365654;28;20094;-88
2022/08/25 16:09:49;;;;;;;7.43;2.90;;;;;;;;;;8364149;28;20055;-88
2022/08/25 16:13:53;;;;;;;6.90;2.80;;;;;;;;;;8378283;28;20056;-88
2022/08/25 16:17:56;;;;;;;10.13;3.33;;;;;;;;;;8369789;28;20056;-88
2022/08/25 16:22:00;;;;;;;7.80;3.00;;;;;;;;;;8369940;28;20496;-89
2022/08/25 16:26:05;;;;;;;6.45;3.00;;;;;;;;;;8367075;28;20041;-88
2022/08/25 16:30:12;;;;;;;7.40;3.75;;;;;;;;;;8364927;28;20057;-88
2022/08/25 16:34:15;;;;;;;12.20;3.35;;;;;;;;;;8372534;28;20396;-88
2022/08/25 16:38:18;;;;;;;9.85;3.40;;;;;;;;;;8367578;28;20630;-89
2022/08/25 16:42:20;;;;;;;7.88;3.33;;;;;;;;;;8369479;28;20599;-89
2022/08/25 16:46:26;;;;;;;6.32;3.03;;;;;;;;;;8374710;28;20557;-88
2022/08/25 16:50:29;;;;;;;8.05;3.35;;;;;;;;;;8374909;28;20048;-90
2022/08/25 16:58:52;;;;;;;13.82;4.00;;;;;;;;;;8365651;28;20067;-89
2022/08/25 17:02:59;;;;;;;11.02;3.67;;;;;;;;;;8363401;28;20649;-89
2022/08/25 17:07:01;;;;;;;10.85;4.07;;;;;;;;;;8370530;28;20219;-88
2022/08/25 17:11:06;;;;;;;7.35;3.78;;;;;;;;;;8374760;28;20071;-89
2022/08/25 17:15:09;;;;;;;7.43;3.90;;;;;;;;;;8369805;28;20049;-88
2022/08/25 17:19:14;;;;;;;10.07;4.05;;;;;;;;;;8369494;28;20090;-88
2022/08/25 17:23:16;;;;;;;12.60;4.00;;;;;;;;;;8365030;28;20491;-90
2022/08/25 17:27:20;;;;;;;6.90;3.88;;;;;;;;;;8364042;28;20055;-88
2022/08/25 17:31:22;;;;;;;9.73;3.85;;;;;;;;;;8377037;28;20051;-88
2022/08/25 17:35:27;;;;;;;6.47;4.28;;;;;;;;;;8370315;28;20124;-88
2022/08/25 17:39:30;;;;;;;8.15;3.92;;;;;;;;;;8373900;28;20484;-88
2022/08/25 17:43:33;;;;;;;8.90;3.97;;;;;;;;;;8370723;28;20064;-87
2022/08/25 17:47:36;;;;;;;6.95;4.10;;;;;;;;;;8368805;28;20051;-88
2022/08/25 17:51:40;;;;;;;10.48;4.32;;;;;;;;;;8368237;28;20048;-89
2022/08/25 17:55:42;;;;;;;5.63;3.70;;;;;;;;;;8363613;28;20451;-88
2022/08/25 17:59:45;;;;;;;8.55;4.13;;;;;;;;;;8362071;28;20055;-88
2022/08/25 18:03:48;;;;;;;6.07;4.13;;;;;;;;;;8376738;28;20127;-93
2022/08/25 18:07:52;;;;;;;9.18;4.85;;;;;;;;;;8370208;28;20056;-88
2022/08/25 18:11:55;;;;;;;10.30;5.00;;;;;;;;;;8368208;28;20508;-88
2022/08/25 18:15:57;;;;;;;8.02;4.43;;;;;;;;;;8365501;28;20045;-88
2022/08/25 18:20:02;;;;;;;6.68;3.97;;;;;;;;;;8363771;28;20069;-88
2022/08/25 18:24:07;;;;;;;9.07;4.63;;;;;;;;;;8382353;28;20128;-88
2022/08/25 18:28:10;;;;;;;12.30;5.20;;;;;;;;;;8378063;28;20507;-88
2022/08/25 18:32:13;;;;;;;13.13;5.57;;;;;;;;;;8374173;28;20045;-89
2022/08/25 18:36:15;;;;;;;10.77;5.03;;;;;;;;;;8370621;28;20631;-92
2022/08/25 18:40:22;;;;;;;10.25;4.88;;;;;;;;;;8377309;28;20051;-89
2022/08/25 18:44:25;;;;;;;8.77;4.80;;;;;;;;;;8372009;28;20074;-88
2022/08/25 18:48:28;;;;;;;10.82;4.80;;;;;;;;;;8370680;28;20044;-89
2022/08/25 18:52:30;;;;;;;10.52;4.82;;;;;;;;;;8366687;28;20045;-89
2022/08/25 18:56:35;;;;;;;8.98;4.30;;;;;;;;;;8378117;28;20037;-88
2022/08/25 19:00:41;;;;;;;10.02;4.93;;;;;;;;;;8378881;28;20040;-88
2022/08/25 19:04:44;;;;;;;11.57;5.13;;;;;;;;;;8372463;28;20055;-88
2022/08/25 19:08:46;;;;;;;9.23;4.53;;;;;;;;;;8371726;28;20451;-89
2022/08/25 19:12:50;;;;;;;6.13;4.53;;;;;;;;;;8366456;28;20119;-87
2022/08/25 19:16:53;;;;;;;10.13;4.43;;;;;;;;;;8364747;28;20055;-87
2022/08/25 19:20:57;;;;;;;8.95;4.78;;;;;;;;;;8374548;28;20055;-87
2022/08/25 19:24:59;;;;;;;8.25;4.50;;;;;;;;;;8372859;28;20473;-88
2022/08/25 19:29:06;;;;;;;10.35;5.65;;;;;;;;;;8370843;28;20037;-89
2022/08/25 19:33:09;;;;;;;13.10;5.10;;;;;;;;;;8366415;28;20467;-90
2022/08/25 19:37:15;;;;;;;10.38;4.25;;;;;;;;;;8356643;28;20105;-90
2022/08/25 19:41:18;;;;;;;9.65;4.07;;;;;;;;;;8360938;28;20045;-93
2022/08/25 19:45:24;;;;;;;9.90;4.10;;;;;;;;;;8357097;28;20480;-93
2022/08/25 19:49:29;;;;;;;7.80;3.83;;;;;;;;;;8363525;28;20139;-91
2022/08/25 19:53:33;;;;;;;10.77;4.70;;;;;;;;;;8366115;28;20049;-90
2022/08/25 19:57:36;;;;;;;10.23;4.20;;;;;;;;;;8367595;28;20561;-90
2022/08/25 20:01:41;;;;;;;7.55;3.85;;;;;;;;;;8371669;28;20049;-94
2022/08/25 20:05:44;;;;;;;8.25;3.97;;;;;;;;;;8350758;28;20052;-90
2022/08/25 20:09:47;;;;;;;7.63;3.58;;;;;;;;;;8364576;28;20137;-90
2022/08/25 20:13:49;;;;;;;8.95;3.72;;;;;;;;;;8360338;28;20515;-89
2022/08/25 20:17:53;;;;;;;10.90;4.15;;;;;;;;;;8355971;28;20401;-90
2022/08/25 20:21:56;;;;;;;7.22;3.58;;;;;;;;;;8363444;28;20045;-90
2022/08/25 20:25:58;;;;;;;9.60;3.85;;;;;;;;;;8366975;28;20056;-89
2022/08/25 20:30:02;;;;;;;8.18;4.15;;;;;;;;;;8370724;28;20462;-88
2022/08/25 20:34:06;;;;;;;10.82;4.10;;;;;;;;;;8369957;28;20044;-89
2022/08/25 20:38:09;;;;;;;10.93;4.10;;;;;;;;;;8365112;28;20479;-89
2022/08/25 20:42:12;;;;;;;11.98;3.92;;;;;;;;;;8361875;28;20045;-90
2022/08/25 20:46:17;;;;;;;8.48;3.72;;;;;;;;;;8371957;28;20123;-89
2022/08/25 20:50:22;;;;;;;10.27;3.88;;;;;;;;;;8359156;28;20044;-89
2022/08/25 20:54:25;;;;;;;10.43;4.28;;;;;;;;;;8365927;28;20045;-88
2022/08/25 20:58:27;;;;;;;8.02;3.80;;;;;;;;;;8366337;28;20148;-89
2022/08/25 21:02:31;;;;;;;10.43;3.92;;;;;;;;;;8363704;28;20044;-88
2022/08/25 21:06:36;;;;;;;8.82;3.67;;;;;;;;;;8368445;28;20540;-88
2022/08/25 21:10:39;;;;;;;7.75;3.10;;;;;;;;;;8372447;28;20036;-88
2022/08/25 21:14:42;;;;;;;8.48;3.67;;;;;;;;;;8369860;28;20052;-88
2022/08/25 21:18:45;;;;;;;8.80;4.10;;;;;;;;;;8358245;28;20049;-88
2022/08/25 21:22:50;;;;;;;12.05;3.70;;;;;;;;;;8360665;28;20041;-88
2022/08/25 21:26:54;;;;;;;10.65;4.05;;;;;;;;;;8363146;28;20499;-88
2022/08/25 21:30:57;;;;;;;11.13;4.43;;;;;;;;;;8373234;28;21783;-88
2022/08/25 21:34:59;;;;;;;8.07;3.92;;;;;;;;;;8369615;28;20120;-88
2022/08/25 21:39:04;;;;;;;10.98;3.92;;;;;;;;;;8367891;28;20057;-89
2022/08/25 21:43:06;;;;;;;13.43;4.10;;;;;;;;;;8373836;28;20047;-88
2022/08/25 21:47:09;;;;;;;7.32;3.95;;;;;;;;;;8372029;28;20045;-88
2022/08/25 21:51:13;;;;;;;9.13;3.83;;;;;;;;;;8367395;28;20056;-89
2022/08/25 21:55:17;;;;;;;8.23;4.05;;;;;;;;;;8368073;28;20037;-88
2022/08/25 21:59:24;;;;;;;14.98;4.72;;;;;;;;;;8368041;28;20512;-88
2022/08/25 22:03:26;;;;;;;11.95;4.25;;;;;;;;;;8377218;28;20049;-90
2022/08/25 22:07:29;;;;;;;10.75;4.00;;;;;;;;;;8377939;28;20075;-88
2022/08/25 22:11:34;;;;;;;6.82;3.83;;;;;;;;;;8373711;28;20049;-88
2022/08/25 22:15:36;;;;;;;11.90;4.57;;;;;;;;;;8372739;28;20043;-88
2022/08/25 22:19:39;;;;;;;10.98;3.72;;;;;;;;;;8367520;28;20048;-88
2022/08/25 22:23:42;;;;;;;10.30;4.28;;;;;;;;;;8366970;28;20434;-88
2022/08/25 22:27:46;;;;;;;15.45;4.45;;;;;;;;;;8373241;28;20493;-88
2022/08/25 22:31:48;;;;;;;12.70;4.60;;;;;;;;;;8374703;28;20052;-88
2022/08/25 22:35:51;;;;;;;9.40;3.72;;;;;;;;;;8368179;28;20052;-89
2022/08/25 22:39:53;;;;;;;8.60;4.28;;;;;;;;;;8376404;28;20047;-88
2022/08/25 22:43:58;;;;;;;10.95;5.18;;;;;;;;;;8373299;28;20071;-88
2022/08/25 22:48:00;;;;;;;7.97;4.15;;;;;;;;;;8370007;28;20048;-88
2022/08/25 22:52:04;;;;;;;10.95;4.13;;;;;;;;;;8368903;28;20103;-88
2022/08/25 22:56:07;;;;;;;9.20;4.28;;;;;;;;;;8367029;28;20036;-88
2022/08/25 23:00:14;;;;;;;14.70;4.07;;;;;;;;;;8377073;28;20041;-89
2022/08/25 23:04:17;;;;;;;11.23;4.00;;;;;;;;;;8375071;28;20477;-87
2022/08/25 23:08:20;;;;;;;11.70;4.25;;;;;;;;;;8369495;28;20079;-89
2022/08/25 23:12:24;;;;;;;10.07;4.22;;;;;;;;;;8369117;28;20041;-89
2022/08/25 23:16:30;;;;;;;11.48;4.53;;;;;;;;;;8364754;28;20041;-89
2022/08/25 23:24:52;;;;;;;9.15;4.18;;;;;;;;;;8373875;28;20091;-88
2022/08/25 23:28:54;;;;;;;8.13;4.38;;;;;;;;;;8372229;28;20082;-88
2022/08/25 23:33:00;;;;;;;13.35;4.30;;;;;;;;;;8370638;28;20052;-89
2022/08/25 23:37:02;;;;;;;10.27;4.22;;;;;;;;;;8365309;28;20053;-89
2022/08/25 23:41:06;;;;;;;6.78;3.95;;;;;;;;;;8368922;28;20527;-89
2022/08/25 23:45:09;;;;;;;10.57;4.05;;;;;;;;;;8368474;28;20396;-89
2022/08/25 23:49:14;;;;;;;10.55;4.03;;;;;;;;;;8363953;28;20045;-89
2022/08/25 23:53:19;;;;;;;9.48;4.18;;;;;;;;;;8372914;28;20053;-89
2022/08/25 23:57:22;;;;;;;11.32;4.13;;;;;;;;;;8371850;28;20518;-89
